Betagas — V2KA8 — position and weather

sailwx.info

Track history (hours):
 
Tides and Currents Weather Stations Pressure Air Temp Water Temp Dewpoint Dewpoint Depression Visibility Wind Speed Wind Dir Waves Ship Positions

Betagas

Last reported at 2015-Mar-05 01:31 UTC. Time now 2015-Mar-05 02:40 UTC.
Position N 52°07' E 003°43'.

Length 114.6 m; beam 15.7 m; draft 7.4 m.

Type: Tanker. MMSI: 304050636.

Date/timePositionNaut miles runAvg speedWind from/ knotsBaromVisibWave heightAir tempDewpointWater temp
2015-Mar-05 01:31N 52°07' E 003°43'0 0.1
2015-Mar-05 00:32N 52°07' E 003°42'9 8.9
2015-Mar-04 23:33N 52°02' E 003°53'10 9.7
2015-Mar-04 22:33N 51°58' E 004°08'4 3.3
2015-Mar-04 21:27N 51°55' E 004°12'0 0.0
2015-Mar-04 20:24N 51°55' E 004°12'0 0.0
2015-Mar-04 19:15N 51°55' E 004°12'0 0.0
2015-Mar-04 18:33N 51°55' E 004°12'0 0.0
2015-Mar-04 17:24N 51°55' E 004°12'0 0.0
2015-Mar-04 16:30N 51°55' E 004°12'0 0.0
2015-Mar-04 15:24N 51°55' E 004°12'0 0.0
2015-Mar-04 14:24N 51°55' E 004°12'0 0.0
2015-Mar-04 13:33N 51°55' E 004°12'0 0.0
2015-Mar-04 12:30N 51°55' E 004°12'0 0.0
2015-Mar-04 11:30N 51°55' E 004°12'0 0.0
2015-Mar-04 10:33N 51°55' E 004°12'0 0.0
2015-Mar-04 09:30N 51°55' E 004°12'0 0.0
2015-Mar-04 08:30N 51°55' E 004°12'0 0.0
2015-Mar-04 07:33N 51°55' E 004°12'0 0.0
2015-Mar-04 06:33N 51°55' E 004°12'0 0.0
2015-Mar-04 05:33N 51°55' E 004°12'0 0.0
2015-Mar-04 04:33N 51°55' E 004°12'0 0.0
2015-Mar-04 03:30N 51°55' E 004°12'0 0.0
2015-Mar-04 02:30N 51°55' E 004°12'0 0.0
2015-Mar-04 01:33N 51°55' E 004°12'2 1.6
2015-Mar-04 00:32N 51°57' E 004°11'0 0.0
2015-Mar-03 23:32N 51°57' E 004°11'0 0.0
2015-Mar-03 22:32N 51°57' E 004°11'0 0.0
2015-Mar-03 21:32N 51°57' E 004°11'0 0.0
2015-Mar-03 20:32N 51°57' E 004°11'1 1.4
2015-Mar-03 19:33N 51°57' E 004°09'1 1.1
2015-Mar-03 18:33N 51°57' E 004°10'9 8.8
2015-Mar-03 17:33N 52°00' E 003°57'1211.8
2015-Mar-03 16:31N 51°58' E 003°38'1313.7
2015-Mar-03 15:33N 51°54' E 003°17'3214.4
2015-Mar-03 13:17N 51°40' E 002°29'1215.9
2015-Mar-03 12:33N 51°31' E 002°17'1616.0
2015-Mar-03 11:34N 51°17' E 002°07'1616.0
2015-Mar-03 10:33N 51°08' E 001°46'1816.7
2015-Mar-03 09:30N 50°55' E 001°26'  
2015-Feb-28 15:33N 39°05' W 009°57'1514.1
2015-Feb-28 14:31N 38°50' W 009°57'1414.2
2015-Feb-28 13:33N 38°37' W 009°55'1414.4
2015-Feb-28 12:33N 38°23' W 009°51'2014.3
2015-Feb-28 11:12N 38°04' W 009°45'1214.1
2015-Feb-28 10:21N 37°52' W 009°42'1113.9
2015-Feb-28 09:33N 37°41' W 009°39'8 8.1
2015-Feb-28 08:32N 37°33' W 009°37'7 5.9
2015-Feb-28 07:16N 37°26' W 009°34'5711.7
2015-Feb-28 02:27N 36°37' W 008°59'17413.5
2015-Feb-27 13:32N 36°00' W 005°28'1212.2
2015-Feb-27 12:33N 36°03' W 005°13'21413.8
2015-Feb-26 21:06N 36°36' W 000°51'713.5
2015-Feb-26 20:33N 36°37' W 000°42'4113.8
2015-Feb-26 17:33N 36°44' E 000°09'  
2015-Feb-23 22:24N 38°16' E 012°27'2611.0
2015-Feb-23 20:04N 38°18' E 012°59'610.9
2015-Feb-23 19:33N 38°18' E 013°07'1010.4
2015-Feb-23 18:33N 38°18' E 013°20'10 9.7
2015-Feb-23 17:33N 38°18' E 013°32'9 9.4
2015-Feb-23 16:33N 38°18' E 013°44'10 9.6
2015-Feb-23 15:33N 38°18' E 013°56'1010.1
2015-Feb-23 14:31N 38°18' E 014°10'4811.2
2015-Feb-23 10:15N 38°18' E 015°11'7 9.8
2015-Feb-23 09:34N 38°13' E 015°17'0 0.4
2015-Feb-23 08:32N 38°13' E 015°17'0 0.0
2015-Feb-23 07:32N 38°13' E 015°17'0 0.1
2015-Feb-23 06:32N 38°13' E 015°17'  
Track history (hours):
 
Tides and Currents Weather Stations Pressure Air Temp Water Temp Dewpoint Dewpoint Depression Visibility Wind Speed Wind Dir Waves Ship Positions

Betagas

Last reported at 2015-Mar-05 01:31 UTC. Time now 2015-Mar-05 02:40 UTC.
Position N 52°07' E 003°43'.

Length 114.6 m; beam 15.7 m; draft 7.4 m.

Type: Tanker. MMSI: 304050636.

Date/timePositionNaut miles runAvg speedWind from/ knotsBaromVisibWave heightAir tempDewpointWater temp
2015-Mar-05 01:31N 52°07' E 003°43'0 0.1
2015-Mar-05 00:32N 52°07' E 003°42'9 8.9
2015-Mar-04 23:33N 52°02' E 003°53'10 9.7
2015-Mar-04 22:33N 51°58' E 004°08'4 3.3
2015-Mar-04 21:27N 51°55' E 004°12'0 0.0
2015-Mar-04 20:24N 51°55' E 004°12'0 0.0
2015-Mar-04 19:15N 51°55' E 004°12'0 0.0
2015-Mar-04 18:33N 51°55' E 004°12'0 0.0
2015-Mar-04 17:24N 51°55' E 004°12'0 0.0
2015-Mar-04 16:30N 51°55' E 004°12'0 0.0
2015-Mar-04 15:24N 51°55' E 004°12'0 0.0
2015-Mar-04 14:24N 51°55' E 004°12'0 0.0
2015-Mar-04 13:33N 51°55' E 004°12'0 0.0
2015-Mar-04 12:30N 51°55' E 004°12'0 0.0
2015-Mar-04 11:30N 51°55' E 004°12'0 0.0
2015-Mar-04 10:33N 51°55' E 004°12'0 0.0
2015-Mar-04 09:30N 51°55' E 004°12'0 0.0
2015-Mar-04 08:30N 51°55' E 004°12'0 0.0
2015-Mar-04 07:33N 51°55' E 004°12'0 0.0
2015-Mar-04 06:33N 51°55' E 004°12'0 0.0
2015-Mar-04 05:33N 51°55' E 004°12'0 0.0
2015-Mar-04 04:33N 51°55' E 004°12'0 0.0
2015-Mar-04 03:30N 51°55' E 004°12'0 0.0
2015-Mar-04 02:30N 51°55' E 004°12'0 0.0
2015-Mar-04 01:33N 51°55' E 004°12'2 1.6
2015-Mar-04 00:32N 51°57' E 004°11'0 0.0
2015-Mar-03 23:32N 51°57' E 004°11'0 0.0
2015-Mar-03 22:32N 51°57' E 004°11'0 0.0
2015-Mar-03 21:32N 51°57' E 004°11'0 0.0
2015-Mar-03 20:32N 51°57' E 004°11'1 1.4
2015-Mar-03 19:33N 51°57' E 004°09'1 1.1
2015-Mar-03 18:33N 51°57' E 004°10'9 8.8
2015-Mar-03 17:33N 52°00' E 003°57'1211.8
2015-Mar-03 16:31N 51°58' E 003°38'1313.7
2015-Mar-03 15:33N 51°54' E 003°17'3214.4
2015-Mar-03 13:17N 51°40' E 002°29'1215.9
2015-Mar-03 12:33N 51°31' E 002°17'1616.0
2015-Mar-03 11:34N 51°17' E 002°07'1616.0
2015-Mar-03 10:33N 51°08' E 001°46'1816.7
2015-Mar-03 09:30N 50°55' E 001°26'  
2015-Feb-28 15:33N 39°05' W 009°57'1514.1
2015-Feb-28 14:31N 38°50' W 009°57'1414.2
2015-Feb-28 13:33N 38°37' W 009°55'1414.4
2015-Feb-28 12:33N 38°23' W 009°51'2014.3
2015-Feb-28 11:12N 38°04' W 009°45'1214.1
2015-Feb-28 10:21N 37°52' W 009°42'1113.9
2015-Feb-28 09:33N 37°41' W 009°39'8 8.1
2015-Feb-28 08:32N 37°33' W 009°37'7 5.9
2015-Feb-28 07:16N 37°26' W 009°34'5711.7
2015-Feb-28 02:27N 36°37' W 008°59'17413.5
2015-Feb-27 13:32N 36°00' W 005°28'1212.2
2015-Feb-27 12:33N 36°03' W 005°13'21413.8
2015-Feb-26 21:06N 36°36' W 000°51'713.5
2015-Feb-26 20:33N 36°37' W 000°42'4113.8
2015-Feb-26 17:33N 36°44' E 000°09'  
2015-Feb-23 22:24N 38°16' E 012°27'2611.0
2015-Feb-23 20:04N 38°18' E 012°59'610.9
2015-Feb-23 19:33N 38°18' E 013°07'1010.4
2015-Feb-23 18:33N 38°18' E 013°20'10 9.7
2015-Feb-23 17:33N 38°18' E 013°32'9 9.4
2015-Feb-23 16:33N 38°18' E 013°44'10 9.6
2015-Feb-23 15:33N 38°18' E 013°56'1010.1
2015-Feb-23 14:31N 38°18' E 014°10'4811.2
2015-Feb-23 10:15N 38°18' E 015°11'7 9.8
2015-Feb-23 09:34N 38°13' E 015°17'0 0.4
2015-Feb-23 08:32N 38°13' E 015°17'0 0.0
2015-Feb-23 07:32N 38°13' E 015°17'0 0.1
2015-Feb-23 06:32N 38°13' E 015°17'  

Dump ship's entire track history